sensor_id;sensor_type;location;lat;lon;timestamp;P1;durP1;ratioP1;P2;durP2;ratioP2
31872;SDS011;22407;42.820;23.374;2023-03-01T00:01:16;4.60;;;1.50;;
31872;SDS011;22407;42.820;23.374;2023-03-01T00:03:41;5.55;;;2.15;;
31872;SDS011;22407;42.820;23.374;2023-03-01T00:06:07;4.55;;;1.58;;
31872;SDS011;22407;42.820;23.374;2023-03-01T00:08:32;5.43;;;1.90;;
31872;SDS011;22407;42.820;23.374;2023-03-01T00:13:26;5.03;;;2.45;;
31872;SDS011;22407;42.820;23.374;2023-03-01T00:15:52;7.03;;;2.17;;
31872;SDS011;22407;42.820;23.374;2023-03-01T00:18:17;7.13;;;2.50;;
31872;SDS011;22407;42.820;23.374;2023-03-01T00:20:48;5.60;;;2.10;;
31872;SDS011;22407;42.820;23.374;2023-03-01T00:23:14;5.60;;;2.25;;
31872;SDS011;22407;42.820;23.374;2023-03-01T00:25:43;5.53;;;1.85;;
31872;SDS011;22407;42.820;23.374;2023-03-01T00:28:08;5.37;;;2.13;;
31872;SDS011;22407;42.820;23.374;2023-03-01T00:30:33;5.03;;;2.13;;
31872;SDS011;22407;42.820;23.374;2023-03-01T00:32:59;6.17;;;1.97;;
31872;SDS011;22407;42.820;23.374;2023-03-01T00:35:24;4.50;;;1.63;;
31872;SDS011;22407;42.820;23.374;2023-03-01T00:37:50;4.40;;;1.57;;
31872;SDS011;22407;42.820;23.374;2023-03-01T00:40:22;5.15;;;2.00;;
31872;SDS011;22407;42.820;23.374;2023-03-01T00:42:47;4.80;;;2.20;;
31872;SDS011;22407;42.820;23.374;2023-03-01T00:45:13;4.27;;;1.47;;
31872;SDS011;22407;42.820;23.374;2023-03-01T00:47:38;5.03;;;1.90;;
31872;SDS011;22407;42.820;23.374;2023-03-01T00:50:03;5.00;;;1.80;;
31872;SDS011;22407;42.820;23.374;2023-03-01T00:52:29;5.22;;;1.75;;
31872;SDS011;22407;42.820;23.374;2023-03-01T00:54:54;4.90;;;2.07;;
31872;SDS011;22407;42.820;23.374;2023-03-01T00:57:19;4.43;;;1.70;;
31872;SDS011;22407;42.820;23.374;2023-03-01T00:59:45;4.60;;;1.50;;
31872;SDS011;22407;42.820;23.374;2023-03-01T01:02:10;4.60;;;1.70;;
31872;SDS011;22407;42.820;23.374;2023-03-01T01:04:35;4.40;;;1.53;;
31872;SDS011;22407;42.820;23.374;2023-03-01T01:07:00;7.23;;;1.60;;
31872;SDS011;22407;42.820;23.374;2023-03-01T01:09:26;4.87;;;1.90;;
31872;SDS011;22407;42.820;23.374;2023-03-01T01:11:51;4.15;;;1.63;;
31872;SDS011;22407;42.820;23.374;2023-03-01T01:14:17;4.20;;;1.40;;
31872;SDS011;22407;42.820;23.374;2023-03-01T01:16:43;4.83;;;1.70;;
31872;SDS011;22407;42.820;23.374;2023-03-01T01:19:09;4.43;;;1.75;;
31872;SDS011;22407;42.820;23.374;2023-03-01T01:21:35;4.68;;;1.73;;
31872;SDS011;22407;42.820;23.374;2023-03-01T01:24:02;5.03;;;1.70;;
31872;SDS011;22407;42.820;23.374;2023-03-01T01:26:29;4.20;;;1.50;;
31872;SDS011;22407;42.820;23.374;2023-03-01T01:28:54;4.65;;;1.80;;
31872;SDS011;22407;42.820;23.374;2023-03-01T01:31:20;4.73;;;1.80;;
31872;SDS011;22407;42.820;23.374;2023-03-01T01:33:48;3.90;;;1.30;;
31872;SDS011;22407;42.820;23.374;2023-03-01T01:36:13;4.90;;;1.83;;
31872;SDS011;22407;42.820;23.374;2023-03-01T01:38:39;5.60;;;1.57;;
31872;SDS011;22407;42.820;23.374;2023-03-01T01:41:04;3.90;;;1.10;;
31872;SDS011;22407;42.820;23.374;2023-03-01T01:43:31;4.63;;;1.57;;
31872;SDS011;22407;42.820;23.374;2023-03-01T01:46:04;4.38;;;1.58;;
31872;SDS011;22407;42.820;23.374;2023-03-01T01:48:52;4.70;;;1.88;;
31872;SDS011;22407;42.820;23.374;2023-03-01T01:51:19;4.93;;;1.70;;
31872;SDS011;22407;42.820;23.374;2023-03-01T01:53:47;4.22;;;1.27;;
31872;SDS011;22407;42.820;23.374;2023-03-01T01:56:14;4.35;;;1.60;;
31872;SDS011;22407;42.820;23.374;2023-03-01T01:58:41;5.70;;;2.30;;
31872;SDS011;22407;42.820;23.374;2023-03-01T02:01:08;4.70;;;1.55;;
31872;SDS011;22407;42.820;23.374;2023-03-01T02:03:33;4.70;;;1.73;;
31872;SDS011;22407;42.820;23.374;2023-03-01T02:08:31;5.20;;;1.60;;
31872;SDS011;22407;42.820;23.374;2023-03-01T02:10:57;5.15;;;1.40;;
31872;SDS011;22407;42.820;23.374;2023-03-01T02:13:24;4.47;;;1.60;;
31872;SDS011;22407;42.820;23.374;2023-03-01T02:15:50;4.60;;;1.73;;
31872;SDS011;22407;42.820;23.374;2023-03-01T02:18:16;5.47;;;1.70;;
31872;SDS011;22407;42.820;23.374;2023-03-01T02:23:27;4.60;;;1.77;;
31872;SDS011;22407;42.820;23.374;2023-03-01T02:25:57;4.97;;;1.98;;
31872;SDS011;22407;42.820;23.374;2023-03-01T02:30:49;4.63;;;1.83;;
31872;SDS011;22407;42.820;23.374;2023-03-01T02:33:34;4.00;;;1.42;;
31872;SDS011;22407;42.820;23.374;2023-03-01T02:36:02;4.35;;;1.70;;
31872;SDS011;22407;42.820;23.374;2023-03-01T02:38:29;4.28;;;1.35;;
31872;SDS011;22407;42.820;23.374;2023-03-01T02:40:54;4.10;;;1.57;;
31872;SDS011;22407;42.820;23.374;2023-03-01T02:43:22;4.57;;;1.70;;
31872;SDS011;22407;42.820;23.374;2023-03-01T02:45:49;4.20;;;1.50;;
31872;SDS011;22407;42.820;23.374;2023-03-01T02:48:15;4.07;;;1.35;;
31872;SDS011;22407;42.820;23.374;2023-03-01T02:53:32;4.32;;;1.65;;
31872;SDS011;22407;42.820;23.374;2023-03-01T02:56:00;4.75;;;1.45;;
31872;SDS011;22407;42.820;23.374;2023-03-01T02:58:25;5.40;;;1.80;;
31872;SDS011;22407;42.820;23.374;2023-03-01T03:00:51;5.47;;;2.27;;
31872;SDS011;22407;42.820;23.374;2023-03-01T03:03:16;4.53;;;1.40;;
31872;SDS011;22407;42.820;23.374;2023-03-01T03:05:42;4.18;;;1.65;;
31872;SDS011;22407;42.820;23.374;2023-03-01T03:08:07;4.10;;;1.40;;
31872;SDS011;22407;42.820;23.374;2023-03-01T03:10:34;4.80;;;1.73;;
31872;SDS011;22407;42.820;23.374;2023-03-01T03:13:01;4.47;;;1.50;;
31872;SDS011;22407;42.820;23.374;2023-03-01T03:15:27;9.07;;;4.10;;
31872;SDS011;22407;42.820;23.374;2023-03-01T03:17:52;4.07;;;1.50;;
31872;SDS011;22407;42.820;23.374;2023-03-01T03:20:19;5.03;;;1.55;;
31872;SDS011;22407;42.820;23.374;2023-03-01T03:22:45;5.78;;;2.25;;
31872;SDS011;22407;42.820;23.374;2023-03-01T03:25:11;6.67;;;2.07;;
31872;SDS011;22407;42.820;23.374;2023-03-01T03:27:40;16.65;;;4.63;;
31872;SDS011;22407;42.820;23.374;2023-03-01T03:30:06;4.28;;;1.60;;
31872;SDS011;22407;42.820;23.374;2023-03-01T03:32:37;4.50;;;1.60;;
31872;SDS011;22407;42.820;23.374;2023-03-01T03:35:05;4.05;;;1.90;;
31872;SDS011;22407;42.820;23.374;2023-03-01T03:37:38;4.00;;;1.60;;
31872;SDS011;22407;42.820;23.374;2023-03-01T03:40:22;4.53;;;1.65;;
31872;SDS011;22407;42.820;23.374;2023-03-01T03:42:47;3.97;;;1.80;;
31872;SDS011;22407;42.820;23.374;2023-03-01T03:45:13;4.10;;;1.83;;
31872;SDS011;22407;42.820;23.374;2023-03-01T03:47:38;4.00;;;1.55;;
31872;SDS011;22407;42.820;23.374;2023-03-01T03:50:22;3.70;;;1.13;;
31872;SDS011;22407;42.820;23.374;2023-03-01T03:52:47;4.10;;;1.37;;
31872;SDS011;22407;42.820;23.374;2023-03-01T03:55:13;3.80;;;1.43;;
31872;SDS011;22407;42.820;23.374;2023-03-01T04:00:22;4.20;;;1.50;;
31872;SDS011;22407;42.820;23.374;2023-03-01T04:02:49;3.80;;;1.50;;
31872;SDS011;22407;42.820;23.374;2023-03-01T04:05:15;4.43;;;1.27;;
31872;SDS011;22407;42.820;23.374;2023-03-01T04:07:41;4.07;;;1.52;;
31872;SDS011;22407;42.820;23.374;2023-03-01T04:10:08;3.70;;;1.13;;
31872;SDS011;22407;42.820;23.374;2023-03-01T04:12:33;4.00;;;1.35;;
31872;SDS011;22407;42.820;23.374;2023-03-01T04:15:00;4.20;;;1.70;;
31872;SDS011;22407;42.820;23.374;2023-03-01T04:17:25;4.67;;;1.70;;
31872;SDS011;22407;42.820;23.374;2023-03-01T04:19:50;3.72;;;1.30;;
31872;SDS011;22407;42.820;23.374;2023-03-01T04:22:15;4.00;;;1.50;;
31872;SDS011;22407;42.820;23.374;2023-03-01T04:24:43;3.83;;;1.37;;
31872;SDS011;22407;42.820;23.374;2023-03-01T04:27:08;3.95;;;1.42;;
31872;SDS011;22407;42.820;23.374;2023-03-01T04:29:34;3.80;;;1.33;;
31872;SDS011;22407;42.820;23.374;2023-03-01T04:31:59;5.40;;;1.73;;
31872;SDS011;22407;42.820;23.374;2023-03-01T04:34:25;3.90;;;1.65;;
31872;SDS011;22407;42.820;23.374;2023-03-01T04:36:51;4.10;;;1.50;;
31872;SDS011;22407;42.820;23.374;2023-03-01T04:39:17;3.72;;;1.40;;
31872;SDS011;22407;42.820;23.374;2023-03-01T04:41:42;3.90;;;1.50;;
31872;SDS011;22407;42.820;23.374;2023-03-01T04:44:10;4.18;;;2.03;;
31872;SDS011;22407;42.820;23.374;2023-03-01T04:46:36;3.80;;;1.23;;
31872;SDS011;22407;42.820;23.374;2023-03-01T04:49:02;4.87;;;1.53;;
31872;SDS011;22407;42.820;23.374;2023-03-01T04:51:27;4.15;;;1.75;;
31872;SDS011;22407;42.820;23.374;2023-03-01T04:53:53;4.10;;;1.80;;
31872;SDS011;22407;42.820;23.374;2023-03-01T04:56:18;3.80;;;1.40;;
31872;SDS011;22407;42.820;23.374;2023-03-01T04:58:44;3.63;;;1.27;;
31872;SDS011;22407;42.820;23.374;2023-03-01T05:01:16;3.83;;;1.53;;
31872;SDS011;22407;42.820;23.374;2023-03-01T05:03:43;3.90;;;1.40;;
31872;SDS011;22407;42.820;23.374;2023-03-01T05:06:09;3.90;;;1.63;;
31872;SDS011;22407;42.820;23.374;2023-03-01T05:08:35;3.70;;;1.45;;
31872;SDS011;22407;42.820;23.374;2023-03-01T05:11:03;10.40;;;4.45;;
31872;SDS011;22407;42.820;23.374;2023-03-01T05:13:28;3.87;;;1.70;;
31872;SDS011;22407;42.820;23.374;2023-03-01T05:16:00;4.17;;;1.93;;
31872;SDS011;22407;42.820;23.374;2023-03-01T05:18:26;3.90;;;1.60;;
31872;SDS011;22407;42.820;23.374;2023-03-01T05:20:53;7.60;;;1.90;;
31872;SDS011;22407;42.820;23.374;2023-03-01T05:23:21;4.28;;;1.65;;
31872;SDS011;22407;42.820;23.374;2023-03-01T05:25:46;4.13;;;1.58;;
31872;SDS011;22407;42.820;23.374;2023-03-01T05:28:11;4.27;;;1.47;;
31872;SDS011;22407;42.820;23.374;2023-03-01T05:30:37;3.93;;;1.37;;
31872;SDS011;22407;42.820;23.374;2023-03-01T05:33:04;5.65;;;1.65;;
31872;SDS011;22407;42.820;23.374;2023-03-01T05:35:32;3.70;;;1.00;;
31872;SDS011;22407;42.820;23.374;2023-03-01T05:37:57;3.70;;;1.45;;
31872;SDS011;22407;42.820;23.374;2023-03-01T05:40:23;4.10;;;1.40;;
31872;SDS011;22407;42.820;23.374;2023-03-01T05:42:50;3.90;;;1.48;;
31872;SDS011;22407;42.820;23.374;2023-03-01T05:45:17;3.60;;;1.15;;
31872;SDS011;22407;42.820;23.374;2023-03-01T05:47:43;3.70;;;1.43;;
31872;SDS011;22407;42.820;23.374;2023-03-01T05:50:11;3.63;;;1.20;;
31872;SDS011;22407;42.820;23.374;2023-03-01T05:52:37;3.45;;;0.98;;
31872;SDS011;22407;42.820;23.374;2023-03-01T05:55:02;4.60;;;1.83;;
31872;SDS011;22407;42.820;23.374;2023-03-01T05:57:28;5.23;;;1.70;;
31872;SDS011;22407;42.820;23.374;2023-03-01T05:59:53;4.88;;;2.17;;
31872;SDS011;22407;42.820;23.374;2023-03-01T06:02:19;3.73;;;1.23;;
31872;SDS011;22407;42.820;23.374;2023-03-01T06:04:44;3.90;;;1.57;;
31872;SDS011;22407;42.820;23.374;2023-03-01T06:07:10;3.90;;;1.40;;
31872;SDS011;22407;42.820;23.374;2023-03-01T06:09:35;3.60;;;1.23;;
31872;SDS011;22407;42.820;23.374;2023-03-01T06:12:00;4.70;;;1.40;;
31872;SDS011;22407;42.820;23.374;2023-03-01T06:14:25;3.57;;;0.93;;
31872;SDS011;22407;42.820;23.374;2023-03-01T06:16:51;3.73;;;1.27;;
31872;SDS011;22407;42.820;23.374;2023-03-01T06:19:16;5.87;;;2.20;;
31872;SDS011;22407;42.820;23.374;2023-03-01T06:21:41;5.10;;;2.23;;
31872;SDS011;22407;42.820;23.374;2023-03-01T06:24:06;7.67;;;3.20;;
31872;SDS011;22407;42.820;23.374;2023-03-01T06:26:33;5.20;;;1.85;;
31872;SDS011;22407;42.820;23.374;2023-03-01T06:28:58;5.60;;;1.87;;
31872;SDS011;22407;42.820;23.374;2023-03-01T06:31:23;3.80;;;1.40;;
31872;SDS011;22407;42.820;23.374;2023-03-01T06:33:49;6.03;;;2.23;;
31872;SDS011;22407;42.820;23.374;2023-03-01T06:36:14;4.27;;;1.70;;
31872;SDS011;22407;42.820;23.374;2023-03-01T06:38:40;4.10;;;1.42;;
31872;SDS011;22407;42.820;23.374;2023-03-01T06:41:06;5.70;;;2.30;;
31872;SDS011;22407;42.820;23.374;2023-03-01T06:43:31;5.07;;;2.43;;
31872;SDS011;22407;42.820;23.374;2023-03-01T06:45:57;4.90;;;1.70;;
31872;SDS011;22407;42.820;23.374;2023-03-01T06:48:22;4.17;;;1.63;;
31872;SDS011;22407;42.820;23.374;2023-03-01T06:50:47;4.40;;;1.60;;
31872;SDS011;22407;42.820;23.374;2023-03-01T06:53:13;7.43;;;2.97;;
31872;SDS011;22407;42.820;23.374;2023-03-01T06:55:38;5.40;;;2.03;;
31872;SDS011;22407;42.820;23.374;2023-03-01T06:58:03;4.70;;;1.50;;
31872;SDS011;22407;42.820;23.374;2023-03-01T07:00:29;6.73;;;2.63;;
31872;SDS011;22407;42.820;23.374;2023-03-01T07:02:54;7.97;;;2.75;;
31872;SDS011;22407;42.820;23.374;2023-03-01T07:05:20;6.93;;;2.10;;
31872;SDS011;22407;42.820;23.374;2023-03-01T07:07:45;4.80;;;1.67;;
31872;SDS011;22407;42.820;23.374;2023-03-01T07:10:11;4.40;;;1.70;;
31872;SDS011;22407;42.820;23.374;2023-03-01T07:12:36;5.53;;;2.78;;
31872;SDS011;22407;42.820;23.374;2023-03-01T07:15:02;6.40;;;2.87;;
31872;SDS011;22407;42.820;23.374;2023-03-01T07:17:27;5.90;;;2.40;;
31872;SDS011;22407;42.820;23.374;2023-03-01T07:19:53;7.73;;;1.93;;
31872;SDS011;22407;42.820;23.374;2023-03-01T07:22:18;5.80;;;2.00;;
31872;SDS011;22407;42.820;23.374;2023-03-01T07:24:43;5.50;;;1.97;;
31872;SDS011;22407;42.820;23.374;2023-03-01T07:27:09;4.30;;;1.80;;
31872;SDS011;22407;42.820;23.374;2023-03-01T07:29:34;6.03;;;2.00;;
31872;SDS011;22407;42.820;23.374;2023-03-01T07:32:01;4.25;;;1.45;;
31872;SDS011;22407;42.820;23.374;2023-03-01T07:34:26;4.07;;;1.60;;
31872;SDS011;22407;42.820;23.374;2023-03-01T07:36:52;5.03;;;1.90;;
31872;SDS011;22407;42.820;23.374;2023-03-01T07:39:17;3.97;;;1.10;;
31872;SDS011;22407;42.820;23.374;2023-03-01T07:41:42;4.33;;;1.40;;
31872;SDS011;22407;42.820;23.374;2023-03-01T07:44:08;4.27;;;1.63;;
31872;SDS011;22407;42.820;23.374;2023-03-01T07:46:34;4.55;;;1.90;;
31872;SDS011;22407;42.820;23.374;2023-03-01T07:48:59;4.77;;;1.50;;
31872;SDS011;22407;42.820;23.374;2023-03-01T07:51:24;5.47;;;2.17;;
31872;SDS011;22407;42.820;23.374;2023-03-01T07:53:50;4.90;;;2.23;;
31872;SDS011;22407;42.820;23.374;2023-03-01T07:56:15;5.83;;;2.20;;
31872;SDS011;22407;42.820;23.374;2023-03-01T07:58:44;5.53;;;1.98;;
31872;SDS011;22407;42.820;23.374;2023-03-01T08:01:14;4.30;;;1.60;;
31872;SDS011;22407;42.820;23.374;2023-03-01T08:03:39;9.25;;;3.30;;
31872;SDS011;22407;42.820;23.374;2023-03-01T08:06:06;5.77;;;2.00;;
31872;SDS011;22407;42.820;23.374;2023-03-01T08:08:32;4.83;;;2.13;;
31872;SDS011;22407;42.820;23.374;2023-03-01T08:11:00;5.35;;;1.52;;
31872;SDS011;22407;42.820;23.374;2023-03-01T08:13:26;5.35;;;1.88;;
31872;SDS011;22407;42.820;23.374;2023-03-01T08:15:51;4.67;;;1.73;;
31872;SDS011;22407;42.820;23.374;2023-03-01T08:18:18;4.90;;;2.03;;
31872;SDS011;22407;42.820;23.374;2023-03-01T08:20:43;4.63;;;1.42;;
31872;SDS011;22407;42.820;23.374;2023-03-01T08:23:09;6.45;;;2.38;;
31872;SDS011;22407;42.820;23.374;2023-03-01T08:25:34;4.60;;;2.00;;
31872;SDS011;22407;42.820;23.374;2023-03-01T08:27:59;5.20;;;1.83;;
31872;SDS011;22407;42.820;23.374;2023-03-01T08:30:25;7.53;;;2.43;;
31872;SDS011;22407;42.820;23.374;2023-03-01T08:32:50;6.23;;;1.90;;
31872;SDS011;22407;42.820;23.374;2023-03-01T08:35:15;8.77;;;2.83;;
31872;SDS011;22407;42.820;23.374;2023-03-01T08:37:41;13.38;;;3.65;;
31872;SDS011;22407;42.820;23.374;2023-03-01T08:40:06;5.73;;;2.17;;
31872;SDS011;22407;42.820;23.374;2023-03-01T08:42:33;4.77;;;1.67;;
31872;SDS011;22407;42.820;23.374;2023-03-01T08:44:58;4.70;;;1.90;;
31872;SDS011;22407;42.820;23.374;2023-03-01T08:47:24;5.07;;;2.00;;
31872;SDS011;22407;42.820;23.374;2023-03-01T08:49:50;5.28;;;1.90;;
31872;SDS011;22407;42.820;23.374;2023-03-01T08:52:15;5.93;;;1.67;;
31872;SDS011;22407;42.820;23.374;2023-03-01T08:54:40;5.73;;;2.00;;
31872;SDS011;22407;42.820;23.374;2023-03-01T08:57:06;5.03;;;1.70;;
31872;SDS011;22407;42.820;23.374;2023-03-01T08:59:31;7.93;;;2.95;;
31872;SDS011;22407;42.820;23.374;2023-03-01T09:02:02;5.37;;;2.00;;
31872;SDS011;22407;42.820;23.374;2023-03-01T09:04:27;13.82;;;5.05;;
31872;SDS011;22407;42.820;23.374;2023-03-01T09:06:52;5.33;;;1.83;;
31872;SDS011;22407;42.820;23.374;2023-03-01T09:09:18;7.10;;;3.00;;
31872;SDS011;22407;42.820;23.374;2023-03-01T09:11:43;9.70;;;4.77;;
31872;SDS011;22407;42.820;23.374;2023-03-01T09:14:11;5.75;;;2.30;;
31872;SDS011;22407;42.820;23.374;2023-03-01T09:16:36;6.43;;;2.50;;
31872;SDS011;22407;42.820;23.374;2023-03-01T09:19:02;5.37;;;2.30;;
31872;SDS011;22407;42.820;23.374;2023-03-01T09:21:27;6.15;;;1.80;;
31872;SDS011;22407;42.820;23.374;2023-03-01T09:23:52;5.40;;;2.37;;
31872;SDS011;22407;42.820;23.374;2023-03-01T09:26:19;7.63;;;2.20;;
31872;SDS011;22407;42.820;23.374;2023-03-01T09:28:46;6.43;;;2.78;;
31872;SDS011;22407;42.820;23.374;2023-03-01T09:31:12;6.43;;;3.33;;
31872;SDS011;22407;42.820;23.374;2023-03-01T09:33:38;15.18;;;7.53;;
31872;SDS011;22407;42.820;23.374;2023-03-01T09:36:04;5.78;;;2.55;;
31872;SDS011;22407;42.820;23.374;2023-03-01T09:38:29;4.90;;;1.73;;
31872;SDS011;22407;42.820;23.374;2023-03-01T09:40:55;5.45;;;2.47;;
31872;SDS011;22407;42.820;23.374;2023-03-01T09:45:46;5.70;;;1.58;;
31872;SDS011;22407;42.820;23.374;2023-03-01T09:48:16;5.60;;;2.15;;
31872;SDS011;22407;42.820;23.374;2023-03-01T09:50:43;4.83;;;1.83;;
31872;SDS011;22407;42.820;23.374;2023-03-01T09:53:16;5.47;;;2.60;;
31872;SDS011;22407;42.820;23.374;2023-03-01T09:55:54;7.40;;;2.60;;
31872;SDS011;22407;42.820;23.374;2023-03-01T10:00:55;6.70;;;2.20;;
31872;SDS011;22407;42.820;23.374;2023-03-01T10:03:26;5.47;;;2.17;;
31872;SDS011;22407;42.820;23.374;2023-03-01T10:05:57;5.75;;;2.00;;
31872;SDS011;22407;42.820;23.374;2023-03-01T10:08:26;5.43;;;1.70;;
31872;SDS011;22407;42.820;23.374;2023-03-01T10:10:52;4.85;;;1.77;;
31872;SDS011;22407;42.820;23.374;2023-03-01T10:16:03;7.80;;;3.40;;
31872;SDS011;22407;42.820;23.374;2023-03-01T10:18:31;5.50;;;2.17;;
31872;SDS011;22407;42.820;23.374;2023-03-01T10:23:23;6.33;;;2.50;;
31872;SDS011;22407;42.820;23.374;2023-03-01T10:30:48;6.35;;;2.05;;
31872;SDS011;22407;42.820;23.374;2023-03-01T10:33:21;5.70;;;2.23;;
31872;SDS011;22407;42.820;23.374;2023-03-01T10:35:47;6.13;;;2.88;;
31872;SDS011;22407;42.820;23.374;2023-03-01T10:38:13;5.82;;;2.65;;
31872;SDS011;22407;42.820;23.374;2023-03-01T10:40:52;6.60;;;2.60;;
31872;SDS011;22407;42.820;23.374;2023-03-01T10:43:18;6.82;;;3.05;;
31872;SDS011;22407;42.820;23.374;2023-03-01T10:45:44;26.67;;;8.52;;
31872;SDS011;22407;42.820;23.374;2023-03-01T10:48:19;7.27;;;2.27;;
31872;SDS011;22407;42.820;23.374;2023-03-01T10:50:50;5.38;;;2.22;;
31872;SDS011;22407;42.820;23.374;2023-03-01T10:53:37;6.22;;;2.80;;
31872;SDS011;22407;42.820;23.374;2023-03-01T10:56:11;5.10;;;2.13;;
31872;SDS011;22407;42.820;23.374;2023-03-01T10:58:39;5.78;;;2.05;;
31872;SDS011;22407;42.820;23.374;2023-03-01T11:01:06;7.30;;;2.40;;
31872;SDS011;22407;42.820;23.374;2023-03-01T11:05:58;5.83;;;2.17;;
31872;SDS011;22407;42.820;23.374;2023-03-01T11:08:29;5.43;;;2.10;;
31872;SDS011;22407;42.820;23.374;2023-03-01T11:11:03;5.63;;;2.10;;
31872;SDS011;22407;42.820;23.374;2023-03-01T11:13:28;8.40;;;3.00;;
31872;SDS011;22407;42.820;23.374;2023-03-01T11:16:05;9.60;;;3.47;;
31872;SDS011;22407;42.820;23.374;2023-03-01T11:18:31;15.45;;;4.75;;
31872;SDS011;22407;42.820;23.374;2023-03-01T11:20:57;8.10;;;3.25;;
31872;SDS011;22407;42.820;23.374;2023-03-01T11:23:23;7.33;;;2.50;;
31872;SDS011;22407;42.820;23.374;2023-03-01T11:25:54;10.55;;;5.40;;
31872;SDS011;22407;42.820;23.374;2023-03-01T11:28:20;9.35;;;3.90;;
31872;SDS011;22407;42.820;23.374;2023-03-01T11:33:19;6.73;;;2.87;;
31872;SDS011;22407;42.820;23.374;2023-03-01T11:35:55;5.00;;;2.10;;
31872;SDS011;22407;42.820;23.374;2023-03-01T11:38:24;5.15;;;2.10;;
31872;SDS011;22407;42.820;23.374;2023-03-01T11:40:52;4.55;;;1.83;;
31872;SDS011;22407;42.820;23.374;2023-03-01T11:50:58;4.97;;;1.97;;
31872;SDS011;22407;42.820;23.374;2023-03-01T11:53:47;4.72;;;1.80;;
31872;SDS011;22407;42.820;23.374;2023-03-01T11:59:10;4.50;;;1.88;;
31872;SDS011;22407;42.820;23.374;2023-03-01T12:12:21;7.13;;;3.15;;
31872;SDS011;22407;42.820;23.374;2023-03-01T12:37:56;5.53;;;2.55;;
31872;SDS011;22407;42.820;23.374;2023-03-01T12:40:34;6.55;;;2.55;;
31872;SDS011;22407;42.820;23.374;2023-03-01T12:46:10;5.88;;;2.53;;
31872;SDS011;22407;42.820;23.374;2023-03-01T12:51:08;5.78;;;2.05;;
31872;SDS011;22407;42.820;23.374;2023-03-01T12:53:36;6.18;;;2.47;;
31872;SDS011;22407;42.820;23.374;2023-03-01T12:56:06;5.20;;;1.48;;
31872;SDS011;22407;42.820;23.374;2023-03-01T12:58:32;5.68;;;2.40;;
31872;SDS011;22407;42.820;23.374;2023-03-01T13:06:13;7.55;;;2.40;;
31872;SDS011;22407;42.820;23.374;2023-03-01T13:08:51;5.70;;;2.00;;
31872;SDS011;22407;42.820;23.374;2023-03-01T13:11:21;6.70;;;2.55;;
31872;SDS011;22407;42.820;23.374;2023-03-01T13:13:46;9.63;;;3.23;;
31872;SDS011;22407;42.820;23.374;2023-03-01T13:16:21;6.03;;;2.67;;
31872;SDS011;22407;42.820;23.374;2023-03-01T13:18:47;7.25;;;2.53;;
31872;SDS011;22407;42.820;23.374;2023-03-01T13:21:12;8.00;;;2.43;;
31872;SDS011;22407;42.820;23.374;2023-03-01T13:23:52;5.95;;;2.20;;
31872;SDS011;22407;42.820;23.374;2023-03-01T13:26:18;8.97;;;2.97;;
31872;SDS011;22407;42.820;23.374;2023-03-01T13:33:54;8.35;;;3.20;;
31872;SDS011;22407;42.820;23.374;2023-03-01T13:46:42;7.65;;;3.28;;
31872;SDS011;22407;42.820;23.374;2023-03-01T13:49:09;6.55;;;2.72;;
31872;SDS011;22407;42.820;23.374;2023-03-01T13:51:36;6.60;;;2.35;;
31872;SDS011;22407;42.820;23.374;2023-03-01T13:54:01;9.50;;;2.20;;
31872;SDS011;22407;42.820;23.374;2023-03-01T13:56:28;10.77;;;3.17;;
31872;SDS011;22407;42.820;23.374;2023-03-01T13:58:59;6.28;;;2.30;;
31872;SDS011;22407;42.820;23.374;2023-03-01T14:01:29;7.35;;;2.47;;
31872;SDS011;22407;42.820;23.374;2023-03-01T14:03:55;32.38;;;10.60;;
31872;SDS011;22407;42.820;23.374;2023-03-01T14:06:24;22.67;;;7.67;;
31872;SDS011;22407;42.820;23.374;2023-03-01T14:08:51;10.10;;;4.55;;
31872;SDS011;22407;42.820;23.374;2023-03-01T14:16:40;16.13;;;6.10;;
31872;SDS011;22407;42.820;23.374;2023-03-01T14:19:27;14.63;;;5.30;;
31872;SDS011;22407;42.820;23.374;2023-03-01T14:24:28;15.63;;;5.90;;
31872;SDS011;22407;42.820;23.374;2023-03-01T14:26:54;9.27;;;3.50;;
31872;SDS011;22407;42.820;23.374;2023-03-01T14:29:40;11.13;;;4.33;;
31872;SDS011;22407;42.820;23.374;2023-03-01T14:32:08;13.90;;;5.38;;
31872;SDS011;22407;42.820;23.374;2023-03-01T14:34:33;9.27;;;4.60;;
31872;SDS011;22407;42.820;23.374;2023-03-01T14:37:09;9.33;;;4.13;;
31872;SDS011;22407;42.820;23.374;2023-03-01T14:39:34;9.40;;;4.00;;
31872;SDS011;22407;42.820;23.374;2023-03-01T14:41:59;6.70;;;3.30;;
31872;SDS011;22407;42.820;23.374;2023-03-01T14:44:25;6.77;;;3.20;;
31872;SDS011;22407;42.820;23.374;2023-03-01T14:46:54;6.93;;;3.33;;
31872;SDS011;22407;42.820;23.374;2023-03-01T14:49:21;7.43;;;3.42;;
31872;SDS011;22407;42.820;23.374;2023-03-01T14:52:03;7.95;;;3.00;;
31872;SDS011;22407;42.820;23.374;2023-03-01T14:54:46;12.73;;;5.17;;
31872;SDS011;22407;42.820;23.374;2023-03-01T14:57:22;9.52;;;3.55;;
31872;SDS011;22407;42.820;23.374;2023-03-01T14:59:51;7.53;;;3.20;;
31872;SDS011;22407;42.820;23.374;2023-03-01T15:02:19;9.75;;;4.10;;
31872;SDS011;22407;42.820;23.374;2023-03-01T15:04:52;10.52;;;4.35;;
31872;SDS011;22407;42.820;23.374;2023-03-01T15:07:21;15.37;;;6.27;;
31872;SDS011;22407;42.820;23.374;2023-03-01T15:09:47;10.75;;;4.57;;
31872;SDS011;22407;42.820;23.374;2023-03-01T15:14:53;8.68;;;2.95;;
31872;SDS011;22407;42.820;23.374;2023-03-01T15:17:35;8.07;;;2.92;;
31872;SDS011;22407;42.820;23.374;2023-03-01T15:20:02;9.50;;;2.93;;
31872;SDS011;22407;42.820;23.374;2023-03-01T15:22:29;13.77;;;3.92;;
31872;SDS011;22407;42.820;23.374;2023-03-01T15:24:54;7.28;;;3.42;;
31872;SDS011;22407;42.820;23.374;2023-03-01T15:27:21;9.70;;;4.23;;
31872;SDS011;22407;42.820;23.374;2023-03-01T15:29:57;12.75;;;4.93;;
31872;SDS011;22407;42.820;23.374;2023-03-01T15:32:30;10.13;;;3.97;;
31872;SDS011;22407;42.820;23.374;2023-03-01T15:34:56;5.78;;;2.42;;
31872;SDS011;22407;42.820;23.374;2023-03-01T15:37:44;9.68;;;3.97;;
31872;SDS011;22407;42.820;23.374;2023-03-01T15:40:23;9.70;;;3.85;;
31872;SDS011;22407;42.820;23.374;2023-03-01T15:42:56;8.48;;;3.58;;
31872;SDS011;22407;42.820;23.374;2023-03-01T15:45:22;10.33;;;3.53;;
31872;SDS011;22407;42.820;23.374;2023-03-01T15:47:58;8.63;;;3.83;;
31872;SDS011;22407;42.820;23.374;2023-03-01T15:50:27;9.07;;;2.87;;
31872;SDS011;22407;42.820;23.374;2023-03-01T15:52:53;9.05;;;3.70;;
31872;SDS011;22407;42.820;23.374;2023-03-01T15:55:23;9.50;;;4.63;;
31872;SDS011;22407;42.820;23.374;2023-03-01T15:57:49;13.00;;;6.13;;
31872;SDS011;22407;42.820;23.374;2023-03-01T16:00:15;10.37;;;4.70;;
31872;SDS011;22407;42.820;23.374;2023-03-01T16:02:42;14.00;;;4.65;;
31872;SDS011;22407;42.820;23.374;2023-03-01T16:05:19;10.65;;;4.82;;
31872;SDS011;22407;42.820;23.374;2023-03-01T16:07:45;13.02;;;5.28;;
31872;SDS011;22407;42.820;23.374;2023-03-01T16:10:10;15.53;;;6.07;;
31872;SDS011;22407;42.820;23.374;2023-03-01T16:12:35;18.90;;;6.17;;
31872;SDS011;22407;42.820;23.374;2023-03-01T16:15:01;13.97;;;5.47;;
31872;SDS011;22407;42.820;23.374;2023-03-01T16:17:26;15.70;;;7.10;;
31872;SDS011;22407;42.820;23.374;2023-03-01T16:19:51;15.33;;;6.10;;
31872;SDS011;22407;42.820;23.374;2023-03-01T16:22:16;7.23;;;2.97;;
31872;SDS011;22407;42.820;23.374;2023-03-01T16:24:42;6.23;;;2.83;;
31872;SDS011;22407;42.820;23.374;2023-03-01T16:27:07;10.27;;;3.53;;
31872;SDS011;22407;42.820;23.374;2023-03-01T16:29:33;9.17;;;3.43;;
31872;SDS011;22407;42.820;23.374;2023-03-01T16:32:01;12.43;;;3.90;;